Time;durP1;ratioP1;P1;durP2;ratioP2;P2;SDS_P1;SDS_P2;PMS_P1;PMS_P2;Temp;Humidity;BMP_temperature;BMP_pressure;BME280_temperature;BME280_humidity;BME280_pressure;Samples;Min_cycle;Max_cycle;Signal;HPM_P1;HPM_P2
2022/05/04 00:04:41;;;;;;;12.20;5.65;;;;;;;9.00;61.27;100697.09;8640636;33;21093;-74
2022/05/04 00:09:44;;;;;;;9.90;4.85;;;;;;;8.98;61.38;100698.16;8640613;33;20441;-74
2022/05/04 00:14:49;;;;;;;8.95;5.30;;;;;;;8.98;61.19;100696.34;8642105;33;20760;-75
2022/05/04 00:19:52;;;;;;;13.40;5.82;;;;;;;8.88;61.31;100702.44;8641412;33;20238;-75
2022/05/04 00:24:56;;;;;;;16.85;6.45;;;;;;;8.96;61.52;100695.56;8665826;33;20901;-75
2022/05/04 00:30:00;;;;;;;12.93;5.55;;;;;;;8.94;61.23;100700.22;8637592;33;21065;-75
2022/05/04 00:35:04;;;;;;;10.45;5.13;;;;;;;8.96;61.00;100697.41;8637897;33;20429;-74
2022/05/04 00:40:09;;;;;;;9.95;4.68;;;;;;;8.87;61.28;100690.88;8635294;33;20600;-75
2022/05/04 00:45:14;;;;;;;10.93;5.75;;;;;;;8.75;61.45;100700.63;8638364;33;20419;-75
2022/05/04 00:50:17;;;;;;;12.98;5.57;;;;;;;8.49;62.09;100698.84;8641210;33;20517;-75
2022/05/04 00:55:22;;;;;;;10.35;5.05;;;;;;;8.40;62.80;100702.97;8638916;33;20864;-75
2022/05/04 01:00:27;;;;;;;13.20;5.93;;;;;;;8.24;63.21;100699.59;8640747;33;20147;-75
2022/05/04 01:05:30;;;;;;;11.98;5.85;;;;;;;8.36;62.78;100696.06;8642178;33;21093;-75
2022/05/04 01:10:33;;;;;;;10.60;5.57;;;;;;;8.34;63.11;100693.53;8641631;33;20622;-75
2022/05/04 01:15:38;;;;;;;12.48;5.53;;;;;;;8.27;63.00;100710.94;8641276;33;20425;-74
2022/05/04 01:20:41;;;;;;;15.23;6.00;;;;;;;8.23;62.76;100704.09;8634953;33;20143;-74
2022/05/04 01:25:45;;;;;;;16.15;6.85;;;;;;;8.33;62.81;100707.00;8635284;33;20317;-74
2022/05/04 01:30:48;;;;;;;9.48;5.65;;;;;;;8.16;62.75;100706.28;8631562;33;20912;-76
2022/05/04 01:35:51;;;;;;;11.38;5.53;;;;;;;8.18;62.88;100703.53;8629716;33;20401;-73
2022/05/04 01:40:56;;;;;;;12.73;5.82;;;;;;;8.20;62.93;100695.38;8627980;33;20449;-73
2022/05/04 01:45:59;;;;;;;12.93;5.10;;;;;;;8.19;62.62;100702.56;8625501;33;20293;-76
2022/05/04 01:51:02;;;;;;;10.50;4.95;;;;;;;8.16;62.51;100703.63;8649423;33;20155;-75
2022/05/04 01:56:08;;;;;;;15.88;5.53;;;;;;;8.05;62.44;100702.63;8626498;33;20143;-73
2022/05/04 02:01:11;;;;;;;12.88;5.97;;;;;;;8.04;62.35;100701.75;8632895;33;21082;-73
2022/05/04 02:06:16;;;;;;;16.20;5.80;;;;;;;8.04;62.33;100708.94;8636583;33;25433;-73
2022/05/04 02:11:20;;;;;;;12.32;5.88;;;;;;;7.81;62.06;100695.22;8648280;33;20225;-74
2022/05/04 02:16:23;;;;;;;11.73;5.65;;;;;;;7.78;62.48;100694.56;8651348;33;20494;-73
2022/05/04 02:21:27;;;;;;;14.07;6.00;;;;;;;7.82;62.10;100698.78;8651891;33;20405;-73
2022/05/04 02:26:32;;;;;;;10.50;5.30;;;;;;;7.87;61.95;100699.31;8652696;33;20147;-74
2022/05/04 02:31:35;;;;;;;15.48;5.75;;;;;;;7.76;62.04;100691.13;8645347;33;20205;-72
2022/05/04 02:42:00;;;;;;;10.45;4.82;;;;;;;7.65;61.96;100698.03;8637042;33;20500;-73
2022/05/04 02:47:03;;;;;;;10.55;4.72;;;;;;;7.69;61.92;100688.84;8633502;33;20167;-73
2022/05/04 02:52:07;;;;;;;8.68;4.38;;;;;;;7.73;61.69;100693.06;8632231;33;21060;-75
2022/05/04 02:57:12;;;;;;;8.43;4.80;;;;;;;7.63;61.39;100693.75;8633969;33;20455;-75
2022/05/04 03:07:35;;;;;;;11.98;5.45;;;;;;;7.35;62.39;100690.16;8633681;33;20412;-74
2022/05/04 03:12:40;;;;;;;12.88;4.93;;;;;;;7.40;62.50;100689.84;8637631;33;20984;-75
2022/05/04 03:17:43;;;;;;;11.80;4.88;;;;;;;7.41;61.89;100684.41;8636891;33;20605;-74
2022/05/04 03:22:46;;;;;;;11.10;6.57;;;;;;;7.46;61.92;100676.06;8638522;33;20430;-73
2022/05/04 03:27:51;;;;;;;11.50;5.07;;;;;;;7.42;61.76;100674.56;8634835;33;20460;-76
2022/05/04 03:32:53;;;;;;;12.30;4.75;;;;;;;7.32;61.69;100678.75;8640996;27;20493;-72
2022/05/04 03:37:56;;;;;;;6.60;3.90;;;;;;;7.41;61.83;100672.84;8628172;33;20519;-72
2022/05/04 03:43:01;;;;;;;11.63;4.90;;;;;;;7.42;61.64;100674.56;8629962;33;20410;-72
2022/05/04 03:48:04;;;;;;;9.65;5.20;;;;;;;7.40;61.32;100665.78;8654917;33;21022;-72
2022/05/04 03:53:08;;;;;;;13.70;5.00;;;;;;;7.35;61.35;100659.84;8641437;33;21064;-72
2022/05/04 03:58:12;;;;;;;8.25;4.72;;;;;;;7.20;62.23;100661.69;8642311;33;20413;-72
2022/05/04 04:03:16;;;;;;;13.75;5.00;;;;;;;7.21;62.23;100666.97;8649163;33;20409;-72
2022/05/04 04:08:19;;;;;;;12.85;4.72;;;;;;;7.15;62.39;100671.81;8636747;33;20242;-72
2022/05/04 04:13:24;;;;;;;8.07;4.40;;;;;;;7.22;62.03;100666.00;8635998;33;21170;-72
2022/05/04 04:18:28;;;;;;;12.80;4.90;;;;;;;7.28;61.94;100660.25;8635584;33;20200;-72
2022/05/04 04:23:31;;;;;;;6.68;4.30;;;;;;;7.28;62.03;100664.75;8635761;33;20504;-72
2022/05/04 04:28:38;;;;;;;7.38;4.80;;;;;;;7.23;62.01;100670.38;8634346;33;20542;-72
2022/05/04 04:33:41;;;;;;;7.97;4.03;;;;;;;7.27;62.31;100666.56;8635846;33;20172;-74
2022/05/04 04:38:44;;;;;;;7.80;4.15;;;;;;;7.34;62.12;100668.84;8635174;33;20143;-73
2022/05/04 04:43:48;;;;;;;8.95;4.80;;;;;;;7.38;62.01;100671.25;8632460;33;20238;-73
2022/05/04 04:48:51;;;;;;;10.43;4.68;;;;;;;7.40;61.93;100669.31;8636992;33;20619;-73
2022/05/04 04:53:54;;;;;;;13.10;4.72;;;;;;;7.19;62.77;100676.88;8638447;33;20410;-73
2022/05/04 04:58:59;;;;;;;10.02;5.85;;;;;;;7.26;63.17;100680.00;8640898;33;20511;-73
2022/05/04 05:04:02;;;;;;;10.25;4.50;;;;;;;7.45;62.64;100682.38;8642519;33;20769;-73
2022/05/04 05:09:05;;;;;;;10.13;4.85;;;;;;;7.41;62.86;100691.56;8640923;33;20234;-74
2022/05/04 05:19:29;;;;;;;10.10;6.00;;;;;;;7.66;63.24;100686.38;8640129;33;20485;-73
2022/05/04 05:24:32;;;;;;;14.93;5.57;;;;;;;7.95;61.48;100687.16;8639899;33;20422;-73
2022/05/04 05:29:37;;;;;;;13.60;5.32;;;;;;;8.09;61.34;100688.94;8637207;33;20514;-73
2022/05/04 05:34:40;;;;;;;10.52;5.15;;;;;;;8.12;62.18;100687.88;8633612;33;20143;-73
2022/05/04 05:39:43;;;;;;;11.30;5.32;;;;;;;8.11;62.11;100681.66;8630382;33;20146;-73
2022/05/04 05:44:47;;;;;;;10.15;5.30;;;;;;;8.25;61.67;100679.88;8627671;33;20692;-73
2022/05/04 05:49:50;;;;;;;11.23;5.32;;;;;;;8.36;60.90;100680.00;8630145;33;20522;-73
2022/05/04 05:54:54;;;;;;;10.52;5.97;;;;;;;8.49;60.45;100686.31;8631313;33;20143;-73
2022/05/04 05:59:59;;;;;;;13.48;6.38;;;;;;;8.36;60.47;100694.28;8631875;33;20212;-73
2022/05/04 06:05:02;;;;;;;11.07;5.80;;;;;;;8.42;61.13;100687.66;8629943;33;20147;-73
2022/05/04 06:10:07;;;;;;;12.50;7.05;;;;;;;8.88;60.67;100681.84;8627789;33;20147;-73
2022/05/04 06:15:12;;;;;;;13.43;6.32;;;;;;;9.08;59.77;100690.31;8630789;33;20175;-73
2022/05/04 06:20:15;;;;;;;8.40;5.38;;;;;;;8.97;59.41;100680.38;8625712;33;20715;-74
2022/05/04 06:25:18;;;;;;;14.00;5.07;;;;;;;8.94;59.63;100681.44;8627849;33;20674;-74
2022/05/04 06:35:43;;;;;;;15.98;6.40;;;;;;;9.46;59.17;100695.66;8554049;33;20246;-74
2022/05/04 06:40:46;;;;;;;22.23;7.05;;;;;;;9.61;58.48;100704.44;8575720;33;20903;-72
2022/05/04 06:45:51;;;;;;;14.77;6.38;;;;;;;9.69;57.93;100691.34;8578240;33;20469;-71
2022/05/04 06:50:54;;;;;;;11.30;4.88;;;;;;;9.99;57.57;100682.06;8580576;33;20440;-71
2022/05/04 06:55:57;;;;;;;12.27;5.05;;;;;;;10.39;57.10;100687.97;8560963;33;20434;-72
2022/05/04 07:01:03;;;;;;;13.63;5.55;;;;;;;10.87;56.15;100693.25;8525654;33;20552;-72
2022/05/04 07:06:06;;;;;;;10.23;5.75;;;;;;;11.16;54.60;100687.44;8522577;33;20141;-72
2022/05/04 07:11:09;;;;;;;15.55;5.78;;;;;;;11.20;55.20;100691.63;8519580;33;20963;-72
2022/05/04 07:16:15;;;;;;;13.90;5.55;;;;;;;11.65;53.50;100700.53;8520441;33;20426;-72
2022/05/04 07:21:18;;;;;;;9.18;5.00;;;;;;;11.84;53.04;100689.13;8527349;33;20137;-72
2022/05/04 07:26:21;;;;;;;12.77;5.45;;;;;;;11.91;52.46;100690.34;8527060;33;20680;-72
2022/05/04 07:31:25;;;;;;;10.95;5.25;;;;;;;11.95;52.24;100688.25;8525175;33;20161;-72
2022/05/04 07:36:28;;;;;;;12.25;5.10;;;;;;;12.29;51.73;100680.13;8522207;33;20411;-72
2022/05/04 07:46:53;;;;;;;14.23;4.57;;;;;;;12.73;50.14;100667.44;8520300;33;20181;-72
2022/05/04 07:51:56;;;;;;;11.73;5.03;;;;;;;13.03;49.35;100664.78;8522946;33;20569;-72
2022/05/04 07:56:59;;;;;;;9.80;5.25;;;;;;;13.47;48.68;100669.97;8523442;33;20530;-72
2022/05/04 08:07:26;;;;;;;5.88;4.05;;;;;;;13.25;48.47;100677.22;8519296;33;20920;-72
2022/05/04 08:12:29;;;;;;;10.30;5.20;;;;;;;13.33;48.69;100673.00;8514207;33;20134;-72
2022/05/04 08:17:33;;;;;;;14.45;4.72;;;;;;;13.79;47.86;100668.94;8513885;33;20136;-72
2022/05/04 08:22:36;;;;;;;9.45;5.05;;;;;;;14.09;47.01;100671.53;8516049;33;20415;-72
2022/05/04 08:27:39;;;;;;;11.38;5.18;;;;;;;14.29;46.35;100675.13;8517337;33;20937;-72
2022/05/04 08:32:46;;;;;;;12.43;5.17;;;;;;;14.15;46.81;100673.69;8517711;33;20502;-72
2022/05/04 08:37:49;;;;;;;12.23;5.05;;;;;;;14.14;47.10;100676.53;8521605;33;20856;-73
2022/05/04 08:42:53;;;;;;;10.70;4.90;;;;;;;14.29;45.94;100676.94;8522446;33;20243;-72
2022/05/04 08:48:00;;;;;;;10.15;5.07;;;;;;;14.48;46.11;100673.44;8540280;33;20190;-72
2022/05/04 08:53:03;;;;;;;8.85;5.32;;;;;;;14.96;45.49;100677.94;8540729;33;20565;-72
2022/05/04 08:58:07;;;;;;;10.05;4.72;;;;;;;15.43;44.39;100667.13;8539669;33;20527;-72
2022/05/04 09:03:12;;;;;;;10.95;4.90;;;;;;;15.73;44.62;100666.00;8529072;33;20425;-72
2022/05/04 09:08:16;;;;;;;11.90;5.00;;;;;;;15.50;43.35;100662.00;8536016;33;20558;-72
2022/05/04 09:13:21;;;;;;;13.50;5.32;;;;;;;15.33;43.40;100671.69;8526211;33;20152;-72
2022/05/04 09:18:26;;;;;;;6.53;4.35;;;;;;;15.41;44.33;100661.00;8524559;33;20967;-71
2022/05/04 09:23:32;;;;;;;14.38;5.25;;;;;;;15.88;44.42;100658.22;8524074;33;20566;-72
2022/05/04 09:28:36;;;;;;;9.25;4.95;;;;;;;16.41;42.56;100653.84;8520011;33;20431;-72
2022/05/04 09:33:40;;;;;;;9.95;5.40;;;;;;;17.06;41.70;100651.63;8644044;27;20415;-73
2022/05/04 09:49:32;;;;;;;10.43;5.45;;;;;;;17.43;41.79;100634.19;8692043;33;20505;-74
2022/05/04 09:54:35;;;;;;;14.23;6.03;;;;;;;17.42;40.79;100629.78;8688777;33;20178;-74
2022/05/04 09:59:38;;;;;;;12.50;5.82;;;;;;;16.64;43.17;100641.50;8688710;33;20276;-74
2022/05/04 10:04:43;;;;;;;15.05;5.90;;;;;;;17.38;41.63;100631.13;8691029;33;20231;-74
2022/05/04 10:09:47;;;;;;;11.80;5.20;;;;;;;18.01;41.32;100627.94;8690402;33;20459;-74
2022/05/04 10:14:51;;;;;;;12.77;5.90;;;;;;;18.31;40.73;100629.19;8691704;33;20147;-74
2022/05/04 10:20:05;;;;;;;9.38;5.35;;;;;;;18.24;41.08;100630.91;8693380;33;21063;-74
2022/05/04 10:25:09;;;;;;;8.73;5.65;;;;;;;18.69;40.37;100623.22;8690889;33;20146;-74
2022/05/04 10:30:31;;;;;;;11.70;6.07;;;;;;;18.88;39.96;100624.78;8690714;33;20181;-74
2022/05/04 10:35:42;;;;;;;10.55;5.63;;;;;;;19.25;38.58;100621.41;8685493;33;20245;-75
2022/05/04 10:40:54;;;;;;;12.50;6.05;;;;;;;19.34;38.94;100622.25;8685602;33;20238;-75
2022/05/04 10:46:05;;;;;;;12.48;6.63;;;;;;;18.43;40.75;100602.50;8684007;33;20546;-75
2022/05/04 10:51:19;;;;;;;11.48;6.40;;;;;;;19.29;39.82;100608.31;8685878;33;20427;-75
2022/05/04 10:56:23;;;;;;;14.32;6.22;;;;;;;19.70;38.30;100609.00;8690881;33;20679;-75
2022/05/04 11:01:30;;;;;;;14.23;6.55;;;;;;;19.19;39.18;100594.91;8698078;33;20883;-75
2022/05/04 11:06:37;;;;;;;14.18;7.25;;;;;;;19.49;39.43;100606.84;8696945;33;20135;-75
2022/05/04 11:11:45;;;;;;;17.65;6.43;;;;;;;19.23;39.20;100599.81;8697346;33;20453;-75
2022/05/04 11:16:48;;;;;;;14.27;6.55;;;;;;;19.99;37.31;100597.41;8696114;33;20143;-75
2022/05/04 11:21:53;;;;;;;14.38;6.72;;;;;;;20.11;38.09;100582.31;8696797;33;20496;-76
2022/05/04 11:26:57;;;;;;;10.10;6.38;;;;;;;20.74;37.42;100579.41;8693488;33;21008;-75
2022/05/04 11:32:03;;;;;;;12.85;6.25;;;;;;;20.81;37.25;100576.78;8701771;33;20295;-74
2022/05/04 11:37:09;;;;;;;14.05;6.68;;;;;;;21.26;35.91;100581.25;8712205;33;20162;-74
2022/05/04 11:42:12;;;;;;;12.65;6.00;;;;;;;19.66;38.17;100581.28;8704932;33;20192;-76
2022/05/04 11:47:15;;;;;;;12.77;7.30;;;;;;;20.53;36.91;100572.78;8701546;33;20215;-76
2022/05/04 11:52:20;;;;;;;12.82;6.55;;;;;;;20.87;37.45;100568.69;8702641;33;20202;-75
2022/05/04 11:57:23;;;;;;;9.13;5.53;;;;;;;22.15;35.15;100572.81;8701171;33;20143;-76
2022/05/04 12:02:26;;;;;;;11.40;6.53;;;;;;;22.06;35.67;100566.63;8701956;33;20223;-76
2022/05/04 12:07:30;;;;;;;11.10;6.90;;;;;;;22.14;35.58;100560.19;8701067;33;20220;-76
2022/05/04 12:12:34;;;;;;;13.32;5.68;;;;;;;22.11;36.55;100550.47;8711796;33;20526;-76
2022/05/04 12:17:38;;;;;;;12.45;7.32;;;;;;;23.07;33.83;100557.31;8714235;33;21190;-76
2022/05/04 12:22:42;;;;;;;10.07;7.30;;;;;;;22.10;35.12;100558.88;8716681;33;20139;-75
2022/05/04 12:27:45;;;;;;;16.02;7.20;;;;;;;22.77;33.61;100546.59;8717821;33;21034;-75
2022/05/04 12:38:15;;;;;;;13.77;7.60;;;;;;;23.10;32.44;100537.72;8697950;33;20142;-75
2022/05/04 12:43:20;;;;;;;10.23;7.65;;;;;;;19.97;37.40;100542.22;8699305;33;20406;-75
2022/05/04 12:48:26;;;;;;;10.98;7.13;;;;;;;20.85;38.46;100532.53;8696082;33;20419;-76
2022/05/04 12:53:30;;;;;;;10.75;7.30;;;;;;;22.53;35.51;100526.84;8717558;33;20189;-76
2022/05/04 12:58:40;;;;;;;11.95;7.07;;;;;;;23.29;34.40;100528.78;8714843;33;20225;-76
2022/05/04 13:03:43;;;;;;;14.30;7.93;;;;;;;23.74;33.58;100522.78;8712680;33;20143;-76
2022/05/04 13:08:48;;;;;;;11.30;7.22;;;;;;;23.57;32.65;100514.13;8703343;33;20187;-74
2022/05/04 13:13:53;;;;;;;12.88;7.20;;;;;;;23.84;32.05;100518.63;8713737;33;20541;-76
2022/05/04 13:19:04;;;;;;;11.70;7.45;;;;;;;22.23;35.11;100519.84;8675021;33;20500;-76
2022/05/04 13:24:09;;;;;;;12.23;7.55;;;;;;;21.47;35.82;100524.94;8698788;33;20878;-75
2022/05/04 13:29:12;;;;;;;12.75;7.88;;;;;;;21.58;36.23;100516.25;8677731;33;20439;-76
2022/05/04 13:34:15;;;;;;;15.40;8.15;;;;;;;20.76;36.92;100515.41;8702403;33;20420;-75
2022/05/04 13:39:20;;;;;;;12.63;7.72;;;;;;;20.12;37.79;100520.44;8701903;33;20418;-75
2022/05/04 13:44:23;;;;;;;15.57;8.63;;;;;;;20.01;38.23;100513.56;8703314;33;20409;-75
2022/05/04 13:49:26;;;;;;;14.07;8.77;;;;;;;19.75;38.24;100511.22;8675898;33;20139;-76
2022/05/04 13:54:30;;;;;;;13.95;9.20;;;;;;;20.88;35.97;100491.22;8698708;33;20504;-76
2022/05/04 13:59:33;;;;;;;14.55;8.30;;;;;;;21.48;35.58;100489.25;8705020;33;20205;-75
2022/05/04 14:04:37;;;;;;;14.52;8.07;;;;;;;20.99;36.57;100496.19;8708625;33;20265;-75
2022/05/04 14:09:42;;;;;;;12.20;8.25;;;;;;;20.66;38.15;100487.56;8708247;33;20146;-76
2022/05/04 14:15:03;;;;;;;13.63;8.57;;;;;;;21.80;35.00;100482.47;8698301;33;20186;-76
2022/05/04 14:20:08;;;;;;;10.50;7.28;;;;;;;20.22;37.13;100484.75;8697009;33;20664;-75
2022/05/04 14:25:13;;;;;;;14.15;8.88;;;;;;;18.75;39.42;100484.59;8697619;33;20630;-75
2022/05/04 14:30:16;;;;;;;14.00;8.00;;;;;;;19.90;39.61;100484.00;8698639;33;20575;-76
2022/05/04 14:35:19;;;;;;;12.93;8.40;;;;;;;21.90;36.27;100479.38;8698990;33;20626;-75
2022/05/04 14:40:24;;;;;;;14.40;8.65;;;;;;;22.70;34.79;100478.09;8698307;33;20398;-76
2022/05/04 14:45:29;;;;;;;9.25;6.70;;;;;;;22.92;34.08;100472.53;8671792;33;20167;-76
2022/05/04 14:50:33;;;;;;;9.43;7.38;;;;;;;20.88;37.24;100476.72;8696909;33;21247;-75
2022/05/04 14:55:37;;;;;;;12.85;7.75;;;;;;;21.93;34.19;100459.00;8698299;33;20146;-74
2022/05/04 15:00:40;;;;;;;14.77;8.18;;;;;;;23.38;33.12;100463.66;8697654;33;20419;-75
2022/05/04 15:05:43;;;;;;;12.13;7.70;;;;;;;23.84;32.80;100463.78;8698048;33;20398;-75
2022/05/04 15:10:48;;;;;;;11.32;7.00;;;;;;;22.41;34.12;100479.16;8693691;33;20475;-75
2022/05/04 15:15:51;;;;;;;7.93;6.28;;;;;;;20.84;37.01;100473.50;8694150;33;20154;-75
2022/05/04 15:20:54;;;;;;;11.60;7.10;;;;;;;19.32;39.13;100477.25;8694829;33;20416;-76
2022/05/04 15:25:59;;;;;;;12.38;6.95;;;;;;;19.11;38.92;100478.69;8698460;33;20511;-74
2022/05/04 15:31:03;;;;;;;8.30;5.72;;;;;;;20.31;37.24;100473.59;8696620;32;20873;-74
2022/05/04 15:36:07;;;;;;;8.05;6.03;;;;;;;21.66;35.01;100466.91;8698182;33;20575;-75
2022/05/04 15:41:11;;;;;;;12.90;6.68;;;;;;;23.18;33.29;100471.84;8674749;33;20227;-74
2022/05/04 15:46:14;;;;;;;11.05;6.38;;;;;;;23.33;32.00;100474.41;8699203;33;20418;-74
2022/05/04 15:51:17;;;;;;;11.15;6.50;;;;;;;22.67;33.10;100473.03;8704302;33;20410;-74
2022/05/04 15:56:23;;;;;;;8.50;5.18;;;;;;;22.80;31.50;100468.69;8678317;33;20420;-74
2022/05/04 16:01:26;;;;;;;13.10;5.70;;;;;;;23.40;32.21;100459.66;8710907;33;20639;-74
2022/05/04 16:06:31;;;;;;;11.02;5.53;;;;;;;22.49;32.26;100468.09;8717795;33;20146;-74
2022/05/04 16:11:35;;;;;;;8.88;6.38;;;;;;;23.14;31.44;100457.69;8721632;33;20185;-73
2022/05/04 16:21:40;;;;;;;11.63;6.38;;;;;;;21.89;32.76;100458.56;8721242;33;20601;-74
2022/05/04 16:22:02;;;;;;;10.25;6.80;;;;;;;21.17;34.36;100463.06;8723807;33;20459;-74
2022/05/04 16:27:07;;;;;;;11.23;6.32;;;;;;;21.48;33.22;100453.72;8723149;33;20422;-73
2022/05/04 16:32:10;;;;;;;10.25;6.72;;;;;;;20.63;34.64;100452.44;8691138;33;20895;-74
2022/05/04 16:37:13;;;;;;;10.80;6.70;;;;;;;21.15;34.22;100451.47;8714897;33;21034;-74
2022/05/04 16:42:18;;;;;;;10.85;6.13;;;;;;;21.71;33.51;100439.00;8714363;33;20436;-74
2022/05/04 16:47:21;;;;;;;8.50;6.05;;;;;;;22.10;33.19;100439.38;8710986;33;20643;-74
2022/05/04 16:52:24;;;;;;;10.50;6.78;;;;;;;22.31;32.55;100445.84;8699930;33;20551;-73
2022/05/04 16:57:28;;;;;;;9.73;6.28;;;;;;;22.40;32.67;100450.09;8700114;33;20174;-76
2022/05/04 17:02:31;;;;;;;8.27;6.20;;;;;;;22.63;32.18;100449.84;8702461;33;20417;-74
2022/05/04 17:07:34;;;;;;;12.33;6.33;;;;;;;25.15;29.81;100440.94;8707553;33;20464;-73
2022/05/04 17:12:39;;;;;;;10.48;6.38;;;;;;;27.04;27.59;100440.81;8701338;33;20472;-74
2022/05/04 17:17:42;;;;;;;12.20;6.55;;;;;;;27.11;27.17;100447.06;8698935;33;20145;-75
2022/05/04 17:22:45;;;;;;;8.05;5.22;;;;;;;26.46;27.64;100455.00;8699554;33;20410;-75
2022/05/04 17:27:50;;;;;;;9.77;6.32;;;;;;;26.58;27.48;100449.59;8701142;33;20462;-75
2022/05/04 17:38:13;;;;;;;9.57;6.20;;;;;;;22.48;31.77;100457.34;8698606;33;20267;-73
2022/05/04 17:43:17;;;;;;;12.43;6.75;;;;;;;21.34;33.56;100463.66;8700842;33;20198;-75
2022/05/04 17:48:20;;;;;;;9.38;6.40;;;;;;;22.06;33.15;100475.53;8698583;33;20396;-73
2022/05/04 17:53:23;;;;;;;8.63;5.93;;;;;;;20.61;34.67;100472.78;8698924;33;20472;-73
2022/05/04 17:58:28;;;;;;;8.80;5.75;;;;;;;19.32;37.74;100480.81;8697437;33;20409;-75
2022/05/04 18:03:37;;;;;;;9.90;6.10;;;;;;;18.36;39.15;100485.41;8697340;33;20173;-75
2022/05/04 18:08:43;;;;;;;7.93;6.40;;;;;;;17.43;41.07;100480.28;8700762;33;20411;-75
2022/05/04 18:13:47;;;;;;;9.98;6.22;;;;;;;16.84;41.55;100482.09;8698684;33;20603;-75
2022/05/04 18:18:54;;;;;;;10.02;5.95;;;;;;;16.51;42.64;100483.78;8695477;33;20166;-74
2022/05/04 18:23:57;;;;;;;7.78;6.53;;;;;;;16.27;42.93;100492.63;8697763;33;20149;-74
2022/05/04 18:29:02;;;;;;;8.23;5.70;;;;;;;16.05;43.73;100497.50;8697683;33;20162;-75
2022/05/04 18:34:05;;;;;;;11.40;6.65;;;;;;;15.93;44.46;100498.75;8673173;33;20154;-75
2022/05/04 18:39:10;;;;;;;8.50;5.53;;;;;;;15.73;44.64;100502.66;8697315;33;20519;-74
2022/05/04 18:44:14;;;;;;;9.93;6.15;;;;;;;15.41;45.10;100513.00;8703087;33;20201;-74
2022/05/04 18:49:17;;;;;;;13.63;6.90;;;;;;;15.11;45.29;100518.69;8704107;33;20444;-74
2022/05/04 18:54:20;;;;;;;9.68;5.97;;;;;;;15.07;45.83;100528.97;8679450;33;20417;-74
2022/05/04 18:59:25;;;;;;;10.80;6.68;;;;;;;14.81;46.15;100526.97;8678409;33;20138;-73
2022/05/04 19:04:28;;;;;;;9.98;6.03;;;;;;;14.81;46.51;100535.06;8701137;33;20399;-74
2022/05/04 19:09:31;;;;;;;9.32;5.80;;;;;;;14.71;47.03;100528.00;8700433;33;20624;-73
2022/05/04 19:14:36;;;;;;;11.52;6.25;;;;;;;14.54;46.60;100543.13;8690275;33;20634;-75
2022/05/04 19:19:39;;;;;;;10.25;6.30;;;;;;;14.48;46.69;100547.28;8691558;33;20157;-74
2022/05/04 19:24:42;;;;;;;10.85;5.82;;;;;;;14.41;46.73;100554.25;8698646;33;20245;-75
2022/05/04 19:29:46;;;;;;;12.07;5.93;;;;;;;14.41;46.62;100558.81;8696943;33;20200;-74
2022/05/04 19:34:49;;;;;;;9.98;5.28;;;;;;;14.32;47.23;100564.06;8692239;33;20441;-74
2022/05/04 19:39:53;;;;;;;9.00;6.00;;;;;;;14.22;47.59;100578.56;8686948;33;20450;-75
2022/05/04 19:44:58;;;;;;;10.32;6.00;;;;;;;13.95;48.30;100572.03;8693190;33;20426;-75
2022/05/04 19:50:01;;;;;;;14.30;7.30;;;;;;;13.58;48.44;100593.44;8668534;33;20241;-75
2022/05/04 19:55:05;;;;;;;11.15;5.82;;;;;;;13.56;49.07;100607.06;8699854;33;20956;-75
2022/05/04 20:00:11;;;;;;;8.38;5.88;;;;;;;13.52;49.55;100608.34;8698828;33;20411;-75
2022/05/04 20:05:14;;;;;;;10.73;6.43;;;;;;;13.36;48.91;100611.53;8701536;33;20434;-75
2022/05/04 20:10:23;;;;;;;10.68;6.63;;;;;;;13.35;49.76;100612.50;8702350;33;20419;-75
2022/05/04 20:15:28;;;;;;;13.75;6.75;;;;;;;13.49;49.21;100612.19;8703816;33;20450;-78
2022/05/04 20:20:34;;;;;;;11.43;6.50;;;;;;;13.52;49.42;100615.56;8650334;33;21007;-75
2022/05/04 20:25:39;;;;;;;11.57;6.20;;;;;;;13.26;49.50;100619.59;8623886;33;20959;-75
2022/05/04 20:30:43;;;;;;;11.07;6.40;;;;;;;13.00;50.02;100626.41;8641264;33;20491;-74
2022/05/04 20:35:46;;;;;;;12.85;6.90;;;;;;;12.64;51.03;100633.16;8639383;33;20703;-77
2022/05/04 20:40:49;;;;;;;12.85;6.70;;;;;;;12.57;51.22;100633.69;8641618;33;20539;-74
2022/05/04 20:45:53;;;;;;;12.90;6.05;;;;;;;12.60;51.29;100637.97;8641007;33;20431;-75
2022/05/04 20:56:17;;;;;;;10.20;6.90;;;;;;;12.29;51.49;100631.66;8635367;33;20185;-75
2022/05/04 21:01:21;;;;;;;12.70;7.20;;;;;;;12.27;51.67;100639.81;8649785;33;20242;-73
2022/05/04 21:06:25;;;;;;;16.35;7.63;;;;;;;12.03;52.67;100653.47;8651462;33;20147;-76
2022/05/04 21:11:28;;;;;;;13.82;7.82;;;;;;;11.79;52.59;100664.44;8644637;33;20675;-74
2022/05/04 21:16:33;;;;;;;17.88;7.53;;;;;;;11.69;52.81;100656.28;8639421;33;20454;-76
2022/05/04 21:21:37;;;;;;;12.80;7.05;;;;;;;11.55;53.21;100672.69;8636114;33;20465;-75
2022/05/04 21:26:40;;;;;;;11.50;7.35;;;;;;;11.37;53.90;100668.78;8632814;33;20163;-75
2022/05/04 21:31:45;;;;;;;12.50;7.28;;;;;;;11.31;54.20;100671.97;8649314;27;20400;-72
2022/05/04 21:36:48;;;;;;;13.10;7.32;;;;;;;11.10;54.21;100674.47;8757195;32;20141;-72
2022/05/04 21:41:51;;;;;;;14.82;7.22;;;;;;;11.01;54.18;100673.38;8759461;32;20203;-72
2022/05/04 21:46:55;;;;;;;15.75;7.25;;;;;;;11.06;54.39;100677.41;8757090;32;20160;-72
2022/05/04 21:51:58;;;;;;;15.30;8.15;;;;;;;11.03;54.35;100674.09;8754685;32;20393;-73
2022/05/04 21:57:01;;;;;;;13.35;7.50;;;;;;;11.04;54.07;100675.81;8728956;32;20394;-72
2022/05/04 22:02:06;;;;;;;10.52;6.70;;;;;;;10.79;54.62;100683.09;8753042;32;20484;-72
2022/05/04 22:07:10;;;;;;;11.82;6.35;;;;;;;10.59;54.89;100690.00;8753144;32;20275;-72
2022/05/04 22:17:34;;;;;;;13.50;6.78;;;;;;;10.62;54.47;100705.03;8756323;32;21032;-72
2022/05/04 22:22:39;;;;;;;17.15;7.03;;;;;;;10.61;54.86;100704.19;8754120;32;20165;-72
2022/05/04 22:27:42;;;;;;;10.27;6.47;;;;;;;10.47;54.85;100695.44;8749297;32;20423;-72
2022/05/04 22:32:47;;;;;;;13.07;6.53;;;;;;;10.35;55.46;100710.66;8749991;32;20569;-72
2022/05/04 22:37:52;;;;;;;13.43;7.00;;;;;;;10.37;55.71;100711.41;8754174;32;20463;-72
2022/05/04 22:42:55;;;;;;;15.00;6.43;;;;;;;10.27;55.44;100716.59;8758913;32;20566;-72
2022/05/04 22:47:59;;;;;;;12.98;6.35;;;;;;;10.14;55.52;100716.63;8758096;32;20146;-72
2022/05/04 22:53:02;;;;;;;11.35;7.00;;;;;;;10.23;55.83;100723.19;8758950;32;21132;-72
2022/05/04 22:58:06;;;;;;;11.48;6.63;;;;;;;10.03;55.92;100721.09;8756283;32;20405;-72
2022/05/04 23:03:10;;;;;;;11.43;6.75;;;;;;;9.99;56.09;100725.84;8754311;32;20409;-71
2022/05/04 23:08:14;;;;;;;10.82;7.22;;;;;;;9.66;56.45;100727.28;8754569;32;20142;-72
2022/05/04 23:13:17;;;;;;;13.70;6.63;;;;;;;9.78;56.67;100717.47;8751881;32;20279;-72
2022/05/04 23:18:21;;;;;;;9.38;5.93;;;;;;;9.78;56.74;100717.47;8751707;32;20439;-72
2022/05/04 23:23:24;;;;;;;11.77;6.65;;;;;;;9.78;56.58;100720.16;8752070;32;20543;-72
2022/05/04 23:28:27;;;;;;;11.00;5.95;;;;;;;9.87;56.36;100724.03;8756780;32;20498;-72
2022/05/04 23:33:32;;;;;;;8.88;6.20;;;;;;;9.83;56.32;100726.06;8760915;32;20497;-72
2022/05/04 23:38:35;;;;;;;11.18;6.78;;;;;;;9.79;56.68;100726.38;8760652;32;20237;-72
2022/05/04 23:43:38;;;;;;;13.63;6.78;;;;;;;9.58;56.46;100729.66;8760481;32;20248;-72
2022/05/04 23:48:42;;;;;;;13.27;6.50;;;;;;;9.50;56.86;100723.97;8755823;32;20226;-72
2022/05/04 23:53:45;;;;;;;11.38;6.80;;;;;;;9.23;57.43;100740.19;8756045;32;20422;-72
2022/05/04 23:58:52;;;;;;;12.57;7.40;;;;;;;8.10;60.78;100744.16;8758575;32;20410;-72
